sensor_id;sensor_type;location;lat;lon;timestamp;temperature;humidity
50969;DHT22;36982;51.474;7.228;2023-09-19T00:01:42;15.80;83.90
50969;DHT22;36982;51.474;7.228;2023-09-19T00:04:14;15.80;78.20
50969;DHT22;36982;51.474;7.228;2023-09-19T00:06:40;15.80;77.10
50969;DHT22;36982;51.474;7.228;2023-09-19T00:09:06;15.80;77.60
50969;DHT22;36982;51.474;7.228;2023-09-19T00:11:36;15.70;70.70
50969;DHT22;36982;51.474;7.228;2023-09-19T00:14:03;15.60;68.00
50969;DHT22;36982;51.474;7.228;2023-09-19T00:16:30;15.60;66.90
50969;DHT22;36982;51.474;7.228;2023-09-19T00:18:58;15.60;65.10
50969;DHT22;36982;51.474;7.228;2023-09-19T00:21:23;15.70;65.80
50969;DHT22;36982;51.474;7.228;2023-09-19T00:23:49;15.60;72.80
50969;DHT22;36982;51.474;7.228;2023-09-19T00:26:17;15.60;71.70
50969;DHT22;36982;51.474;7.228;2023-09-19T00:28:44;15.50;73.40
50969;DHT22;36982;51.474;7.228;2023-09-19T00:31:09;15.70;74.90
50969;DHT22;36982;51.474;7.228;2023-09-19T00:33:35;15.40;74.80
50969;DHT22;36982;51.474;7.228;2023-09-19T00:36:01;15.40;75.50
50969;DHT22;36982;51.474;7.228;2023-09-19T00:38:30;15.40;78.30
50969;DHT22;36982;51.474;7.228;2023-09-19T00:40:57;15.40;78.20
50969;DHT22;36982;51.474;7.228;2023-09-19T00:43:25;15.30;76.20
50969;DHT22;36982;51.474;7.228;2023-09-19T00:45:56;15.30;79.70
50969;DHT22;36982;51.474;7.228;2023-09-19T00:48:23;15.30;75.60
50969;DHT22;36982;51.474;7.228;2023-09-19T00:50:50;15.30;76.20
50969;DHT22;36982;51.474;7.228;2023-09-19T00:53:20;15.30;64.70
50969;DHT22;36982;51.474;7.228;2023-09-19T00:55:47;15.30;63.90
50969;DHT22;36982;51.474;7.228;2023-09-19T00:58:13;15.10;68.80
50969;DHT22;36982;51.474;7.228;2023-09-19T01:00:40;15.30;65.10
50969;DHT22;36982;51.474;7.228;2023-09-19T01:03:06;15.10;64.40
50969;DHT22;36982;51.474;7.228;2023-09-19T01:05:35;15.20;61.50
50969;DHT22;36982;51.474;7.228;2023-09-19T01:08:01;15.10;63.50
50969;DHT22;36982;51.474;7.228;2023-09-19T01:10:27;15.10;61.30
50969;DHT22;36982;51.474;7.228;2023-09-19T01:13:08;15.00;63.50
50969;DHT22;36982;51.474;7.228;2023-09-19T01:15:50;15.20;53.50
50969;DHT22;36982;51.474;7.228;2023-09-19T01:21:37;15.10;55.70
50969;DHT22;36982;51.474;7.228;2023-09-19T01:24:44;15.00;53.90
50969;DHT22;36982;51.474;7.228;2023-09-19T01:30:09;15.10;55.00
50969;DHT22;36982;51.474;7.228;2023-09-19T01:32:35;15.00;53.50
50969;DHT22;36982;51.474;7.228;2023-09-19T01:35:03;15.10;54.20
50969;DHT22;36982;51.474;7.228;2023-09-19T01:37:31;15.10;53.10
50969;DHT22;36982;51.474;7.228;2023-09-19T01:40:17;15.10;50.80
50969;DHT22;36982;51.474;7.228;2023-09-19T01:43:02;15.00;53.80
50969;DHT22;36982;51.474;7.228;2023-09-19T01:48:45;14.80;59.10
50969;DHT22;36982;51.474;7.228;2023-09-19T01:51:22;14.90;58.60
50969;DHT22;36982;51.474;7.228;2023-09-19T01:53:55;15.00;52.10
50969;DHT22;36982;51.474;7.228;2023-09-19T01:56:28;14.90;51.70
50969;DHT22;36982;51.474;7.228;2023-09-19T01:58:57;14.80;51.30
50969;DHT22;36982;51.474;7.228;2023-09-19T02:01:26;14.90;50.80
50969;DHT22;36982;51.474;7.228;2023-09-19T02:03:53;15.10;54.40
50969;DHT22;36982;51.474;7.228;2023-09-19T02:06:19;14.90;52.00
50969;DHT22;36982;51.474;7.228;2023-09-19T02:08:45;14.70;53.30
50969;DHT22;36982;51.474;7.228;2023-09-19T02:11:12;14.80;55.40
50969;DHT22;36982;51.474;7.228;2023-09-19T02:13:43;15.00;55.30
50969;DHT22;36982;51.474;7.228;2023-09-19T02:16:09;14.70;48.50
50969;DHT22;36982;51.474;7.228;2023-09-19T02:18:36;14.80;46.00
50969;DHT22;36982;51.474;7.228;2023-09-19T02:21:02;14.80;47.90
50969;DHT22;36982;51.474;7.228;2023-09-19T02:23:29;14.70;46.70
50969;DHT22;36982;51.474;7.228;2023-09-19T02:25:56;14.70;44.00
50969;DHT22;36982;51.474;7.228;2023-09-19T02:28:26;14.70;46.70
50969;DHT22;36982;51.474;7.228;2023-09-19T02:30:55;14.70;52.90
50969;DHT22;36982;51.474;7.228;2023-09-19T02:33:21;14.70;45.10
50969;DHT22;36982;51.474;7.228;2023-09-19T02:35:47;14.60;45.00
50969;DHT22;36982;51.474;7.228;2023-09-19T02:38:12;14.60;45.20
50969;DHT22;36982;51.474;7.228;2023-09-19T02:40:40;14.60;43.20
50969;DHT22;36982;51.474;7.228;2023-09-19T02:43:05;14.50;46.80
50969;DHT22;36982;51.474;7.228;2023-09-19T02:45:33;14.50;48.70
50969;DHT22;36982;51.474;7.228;2023-09-19T02:47:59;14.50;46.30
50969;DHT22;36982;51.474;7.228;2023-09-19T02:50:25;14.50;47.30
50969;DHT22;36982;51.474;7.228;2023-09-19T02:52:51;14.60;44.20
50969;DHT22;36982;51.474;7.228;2023-09-19T02:55:18;14.60;46.20
50969;DHT22;36982;51.474;7.228;2023-09-19T02:57:54;14.60;41.80
50969;DHT22;36982;51.474;7.228;2023-09-19T03:00:23;14.60;42.30
50969;DHT22;36982;51.474;7.228;2023-09-19T03:02:53;14.60;40.00
50969;DHT22;36982;51.474;7.228;2023-09-19T03:05:20;14.50;42.90
50969;DHT22;36982;51.474;7.228;2023-09-19T03:07:47;14.60;30.10
50969;DHT22;36982;51.474;7.228;2023-09-19T03:10:17;14.60;26.70
50969;DHT22;36982;51.474;7.228;2023-09-19T03:12:43;14.60;23.50
50969;DHT22;36982;51.474;7.228;2023-09-19T03:15:09;14.50;27.20
50969;DHT22;36982;51.474;7.228;2023-09-19T03:17:34;14.50;31.60
50969;DHT22;36982;51.474;7.228;2023-09-19T03:20:01;14.50;20.70
50969;DHT22;36982;51.474;7.228;2023-09-19T03:22:27;14.60;19.90
50969;DHT22;36982;51.474;7.228;2023-09-19T03:24:53;14.60;10.10
50969;DHT22;36982;51.474;7.228;2023-09-19T03:27:19;14.60;16.10
50969;DHT22;36982;51.474;7.228;2023-09-19T03:29:46;14.60;11.10
50969;DHT22;36982;51.474;7.228;2023-09-19T03:32:12;14.60;1.00
50969;DHT22;36982;51.474;7.228;2023-09-19T03:34:38;14.50;1.00
50969;DHT22;36982;51.474;7.228;2023-09-19T03:37:11;14.50;1.00
50969;DHT22;36982;51.474;7.228;2023-09-19T03:39:36;14.50;1.00
50969;DHT22;36982;51.474;7.228;2023-09-19T03:42:03;14.40;1.00
50969;DHT22;36982;51.474;7.228;2023-09-19T03:44:30;14.40;1.00
50969;DHT22;36982;51.474;7.228;2023-09-19T03:46:56;14.50;1.00
50969;DHT22;36982;51.474;7.228;2023-09-19T03:49:22;14.50;1.00
50969;DHT22;36982;51.474;7.228;2023-09-19T03:51:48;14.40;1.00
50969;DHT22;36982;51.474;7.228;2023-09-19T03:54:14;14.40;1.00
50969;DHT22;36982;51.474;7.228;2023-09-19T03:56:40;14.40;1.00
50969;DHT22;36982;51.474;7.228;2023-09-19T03:59:05;14.40;1.00
50969;DHT22;36982;51.474;7.228;2023-09-19T04:01:31;14.40;1.00
50969;DHT22;36982;51.474;7.228;2023-09-19T04:03:59;14.30;2.90
50969;DHT22;36982;51.474;7.228;2023-09-19T04:06:33;14.40;1.00
50969;DHT22;36982;51.474;7.228;2023-09-19T04:09:00;14.30;1.00
50969;DHT22;36982;51.474;7.228;2023-09-19T04:11:26;14.30;1.00
50969;DHT22;36982;51.474;7.228;2023-09-19T04:13:51;14.40;1.00
50969;DHT22;36982;51.474;7.228;2023-09-19T04:16:17;14.30;1.00
50969;DHT22;36982;51.474;7.228;2023-09-19T04:18:43;14.20;1.00
50969;DHT22;36982;51.474;7.228;2023-09-19T04:21:08;14.20;1.00
50969;DHT22;36982;51.474;7.228;2023-09-19T04:23:34;14.30;1.00
50969;DHT22;36982;51.474;7.228;2023-09-19T04:26:00;14.30;1.20
50969;DHT22;36982;51.474;7.228;2023-09-19T04:28:26;14.30;1.00
50969;DHT22;36982;51.474;7.228;2023-09-19T04:30:53;14.20;1.00
50969;DHT22;36982;51.474;7.228;2023-09-19T04:33:19;14.10;1.00
50969;DHT22;36982;51.474;7.228;2023-09-19T04:35:44;14.20;1.00
50969;DHT22;36982;51.474;7.228;2023-09-19T04:38:10;14.20;1.00
50969;DHT22;36982;51.474;7.228;2023-09-19T04:40:36;14.20;4.00
50969;DHT22;36982;51.474;7.228;2023-09-19T04:43:05;14.20;1.20
50969;DHT22;36982;51.474;7.228;2023-09-19T04:45:31;14.40;3.50
50969;DHT22;36982;51.474;7.228;2023-09-19T04:47:57;14.20;7.00
50969;DHT22;36982;51.474;7.228;2023-09-19T04:50:22;14.20;1.00
50969;DHT22;36982;51.474;7.228;2023-09-19T04:52:52;14.10;1.00
50969;DHT22;36982;51.474;7.228;2023-09-19T04:55:19;14.20;1.10
50969;DHT22;36982;51.474;7.228;2023-09-19T04:57:45;14.10;3.10
50969;DHT22;36982;51.474;7.228;2023-09-19T05:00:19;14.10;3.90
50969;DHT22;36982;51.474;7.228;2023-09-19T05:02:56;14.20;3.50
50969;DHT22;36982;51.474;7.228;2023-09-19T05:05:22;14.20;4.50
50969;DHT22;36982;51.474;7.228;2023-09-19T05:07:49;14.10;14.90
50969;DHT22;36982;51.474;7.228;2023-09-19T05:10:16;14.20;8.70
50969;DHT22;36982;51.474;7.228;2023-09-19T05:12:44;14.10;8.30
50969;DHT22;36982;51.474;7.228;2023-09-19T05:15:12;14.20;11.60
50969;DHT22;36982;51.474;7.228;2023-09-19T05:17:40;14.10;9.40
50969;DHT22;36982;51.474;7.228;2023-09-19T05:20:06;14.10;20.30
50969;DHT22;36982;51.474;7.228;2023-09-19T05:22:57;14.10;16.50
50969;DHT22;36982;51.474;7.228;2023-09-19T05:25:23;14.10;15.90
50969;DHT22;36982;51.474;7.228;2023-09-19T05:27:53;14.20;15.10
50969;DHT22;36982;51.474;7.228;2023-09-19T05:30:18;14.30;11.40
50969;DHT22;36982;51.474;7.228;2023-09-19T05:32:45;14.20;12.30
50969;DHT22;36982;51.474;7.228;2023-09-19T05:35:11;14.20;10.60
50969;DHT22;36982;51.474;7.228;2023-09-19T05:37:38;14.30;12.30
50969;DHT22;36982;51.474;7.228;2023-09-19T05:40:04;14.20;12.40
50969;DHT22;36982;51.474;7.228;2023-09-19T05:42:34;14.20;11.10
50969;DHT22;36982;51.474;7.228;2023-09-19T05:45:00;14.20;12.80
50969;DHT22;36982;51.474;7.228;2023-09-19T05:47:26;14.20;11.90
50969;DHT22;36982;51.474;7.228;2023-09-19T05:49:51;14.20;11.30
50969;DHT22;36982;51.474;7.228;2023-09-19T05:52:17;14.20;12.70
50969;DHT22;36982;51.474;7.228;2023-09-19T05:54:44;14.30;4.80
50969;DHT22;36982;51.474;7.228;2023-09-19T05:57:09;14.30;6.60
50969;DHT22;36982;51.474;7.228;2023-09-19T05:59:37;14.50;6.40
50969;DHT22;36982;51.474;7.228;2023-09-19T06:02:05;14.40;1.00
50969;DHT22;36982;51.474;7.228;2023-09-19T06:04:34;14.60;1.00
50969;DHT22;36982;51.474;7.228;2023-09-19T06:07:00;14.60;1.00
50969;DHT22;36982;51.474;7.228;2023-09-19T06:09:25;14.80;1.00
50969;DHT22;36982;51.474;7.228;2023-09-19T06:11:53;14.70;1.00
50969;DHT22;36982;51.474;7.228;2023-09-19T06:14:20;14.70;1.00
50969;DHT22;36982;51.474;7.228;2023-09-19T06:16:46;14.80;1.00
50969;DHT22;36982;51.474;7.228;2023-09-19T06:19:12;14.80;1.00
50969;DHT22;36982;51.474;7.228;2023-09-19T06:21:38;14.90;1.00
50969;DHT22;36982;51.474;7.228;2023-09-19T06:24:04;14.90;1.00
50969;DHT22;36982;51.474;7.228;2023-09-19T06:26:30;15.00;1.00
50969;DHT22;36982;51.474;7.228;2023-09-19T06:28:56;14.90;1.00
50969;DHT22;36982;51.474;7.228;2023-09-19T06:31:22;14.90;1.00
50969;DHT22;36982;51.474;7.228;2023-09-19T06:33:51;15.00;1.00
50969;DHT22;36982;51.474;7.228;2023-09-19T06:36:17;15.00;1.00
50969;DHT22;36982;51.474;7.228;2023-09-19T06:38:44;15.10;1.00
50969;DHT22;36982;51.474;7.228;2023-09-19T06:41:09;15.10;1.00
50969;DHT22;36982;51.474;7.228;2023-09-19T06:43:35;15.00;1.00
50969;DHT22;36982;51.474;7.228;2023-09-19T06:46:01;15.20;1.00
50969;DHT22;36982;51.474;7.228;2023-09-19T06:48:27;15.10;1.00
50969;DHT22;36982;51.474;7.228;2023-09-19T06:50:57;15.10;1.00
50969;DHT22;36982;51.474;7.228;2023-09-19T06:53:24;15.30;1.00
50969;DHT22;36982;51.474;7.228;2023-09-19T06:55:50;15.30;1.00
50969;DHT22;36982;51.474;7.228;2023-09-19T06:58:16;15.40;1.00
50969;DHT22;36982;51.474;7.228;2023-09-19T07:00:42;15.30;1.00
50969;DHT22;36982;51.474;7.228;2023-09-19T07:03:08;15.40;1.00
50969;DHT22;36982;51.474;7.228;2023-09-19T07:05:37;15.40;1.00
50969;DHT22;36982;51.474;7.228;2023-09-19T07:08:05;15.50;1.00
50969;DHT22;36982;51.474;7.228;2023-09-19T07:10:36;15.40;1.00
50969;DHT22;36982;51.474;7.228;2023-09-19T07:13:02;15.40;1.00
50969;DHT22;36982;51.474;7.228;2023-09-19T07:15:29;15.40;1.00
50969;DHT22;36982;51.474;7.228;2023-09-19T07:17:56;15.40;1.00
50969;DHT22;36982;51.474;7.228;2023-09-19T07:20:23;15.40;1.00
50969;DHT22;36982;51.474;7.228;2023-09-19T07:22:51;15.50;1.00
50969;DHT22;36982;51.474;7.228;2023-09-19T07:25:17;15.50;1.00
50969;DHT22;36982;51.474;7.228;2023-09-19T07:27:42;15.70;1.00
50969;DHT22;36982;51.474;7.228;2023-09-19T07:30:09;15.70;1.00
50969;DHT22;36982;51.474;7.228;2023-09-19T07:32:35;15.70;1.00
50969;DHT22;36982;51.474;7.228;2023-09-19T07:35:02;15.80;1.00
50969;DHT22;36982;51.474;7.228;2023-09-19T07:37:29;15.90;1.00
50969;DHT22;36982;51.474;7.228;2023-09-19T07:39:56;15.90;1.00
50969;DHT22;36982;51.474;7.228;2023-09-19T07:42:22;15.90;1.00
50969;DHT22;36982;51.474;7.228;2023-09-19T07:44:48;15.90;1.00
50969;DHT22;36982;51.474;7.228;2023-09-19T07:47:16;16.00;1.00
50969;DHT22;36982;51.474;7.228;2023-09-19T07:49:42;16.10;1.00
50969;DHT22;36982;51.474;7.228;2023-09-19T07:52:08;16.00;1.00
50969;DHT22;36982;51.474;7.228;2023-09-19T07:54:35;16.10;1.00
50969;DHT22;36982;51.474;7.228;2023-09-19T07:57:01;16.10;1.00
50969;DHT22;36982;51.474;7.228;2023-09-19T07:59:27;16.10;1.00
50969;DHT22;36982;51.474;7.228;2023-09-19T08:01:53;16.20;1.00
50969;DHT22;36982;51.474;7.228;2023-09-19T08:04:19;16.20;1.00
50969;DHT22;36982;51.474;7.228;2023-09-19T08:06:45;16.20;1.00
50969;DHT22;36982;51.474;7.228;2023-09-19T08:09:11;16.20;1.00
50969;DHT22;36982;51.474;7.228;2023-09-19T08:11:37;16.20;1.00
50969;DHT22;36982;51.474;7.228;2023-09-19T08:14:04;16.20;1.00
50969;DHT22;36982;51.474;7.228;2023-09-19T08:16:31;16.40;1.00
50969;DHT22;36982;51.474;7.228;2023-09-19T08:18:57;16.50;1.00
50969;DHT22;36982;51.474;7.228;2023-09-19T08:21:23;16.60;1.00
50969;DHT22;36982;51.474;7.228;2023-09-19T08:23:50;16.50;1.00
50969;DHT22;36982;51.474;7.228;2023-09-19T08:26:15;16.50;1.00
50969;DHT22;36982;51.474;7.228;2023-09-19T08:28:41;16.50;1.00
50969;DHT22;36982;51.474;7.228;2023-09-19T08:31:07;16.60;1.00
50969;DHT22;36982;51.474;7.228;2023-09-19T08:33:34;16.60;1.00
50969;DHT22;36982;51.474;7.228;2023-09-19T08:36:04;16.70;1.00
50969;DHT22;36982;51.474;7.228;2023-09-19T08:38:34;16.50;1.00
50969;DHT22;36982;51.474;7.228;2023-09-19T08:41:13;16.50;1.00
50969;DHT22;36982;51.474;7.228;2023-09-19T08:43:39;16.50;1.00
50969;DHT22;36982;51.474;7.228;2023-09-19T08:46:14;16.60;1.00
50969;DHT22;36982;51.474;7.228;2023-09-19T08:48:54;16.70;1.00
50969;DHT22;36982;51.474;7.228;2023-09-19T08:51:43;16.90;1.00
50969;DHT22;36982;51.474;7.228;2023-09-19T08:54:26;17.10;1.00
50969;DHT22;36982;51.474;7.228;2023-09-19T08:56:55;17.00;99.90
50969;DHT22;36982;51.474;7.228;2023-09-19T08:59:22;17.10;99.90
50969;DHT22;36982;51.474;7.228;2023-09-19T09:01:55;17.20;99.90
50969;DHT22;36982;51.474;7.228;2023-09-19T09:04:22;17.40;99.90
50969;DHT22;36982;51.474;7.228;2023-09-19T09:06:49;17.40;99.90
50969;DHT22;36982;51.474;7.228;2023-09-19T09:09:18;17.30;99.90
50969;DHT22;36982;51.474;7.228;2023-09-19T09:11:45;17.40;99.90
50969;DHT22;36982;51.474;7.228;2023-09-19T09:14:11;17.10;99.90
50969;DHT22;36982;51.474;7.228;2023-09-19T09:16:38;17.10;99.90
50969;DHT22;36982;51.474;7.228;2023-09-19T09:19:05;17.20;99.90
50969;DHT22;36982;51.474;7.228;2023-09-19T09:21:30;17.30;99.90
50969;DHT22;36982;51.474;7.228;2023-09-19T09:24:26;17.50;99.90
50969;DHT22;36982;51.474;7.228;2023-09-19T09:26:54;17.50;99.90
50969;DHT22;36982;51.474;7.228;2023-09-19T09:29:43;17.60;99.90
50969;DHT22;36982;51.474;7.228;2023-09-19T09:32:26;17.60;99.90
50969;DHT22;36982;51.474;7.228;2023-09-19T09:35:20;17.80;99.90
50969;DHT22;36982;51.474;7.228;2023-09-19T09:37:46;17.80;99.90
50969;DHT22;36982;51.474;7.228;2023-09-19T09:40:14;17.80;99.90
50969;DHT22;36982;51.474;7.228;2023-09-19T09:42:39;17.70;99.90
50969;DHT22;36982;51.474;7.228;2023-09-19T09:45:20;17.70;99.90
50969;DHT22;36982;51.474;7.228;2023-09-19T09:48:15;17.70;99.90
50969;DHT22;36982;51.474;7.228;2023-09-19T09:50:48;17.70;99.90
50969;DHT22;36982;51.474;7.228;2023-09-19T09:53:40;17.70;99.90
50969;DHT22;36982;51.474;7.228;2023-09-19T09:56:09;17.80;99.90
50969;DHT22;36982;51.474;7.228;2023-09-19T09:58:55;17.80;99.90
50969;DHT22;36982;51.474;7.228;2023-09-19T10:01:24;17.80;67.40
50969;DHT22;36982;51.474;7.228;2023-09-19T10:03:57;17.80;75.60
50969;DHT22;36982;51.474;7.228;2023-09-19T10:06:23;17.80;86.20
50969;DHT22;36982;51.474;7.228;2023-09-19T10:09:02;17.70;93.40
50969;DHT22;36982;51.474;7.228;2023-09-19T10:11:47;17.70;99.90
50969;DHT22;36982;51.474;7.228;2023-09-19T10:14:20;17.90;99.90
50969;DHT22;36982;51.474;7.228;2023-09-19T10:16:50;18.10;99.90
50969;DHT22;36982;51.474;7.228;2023-09-19T10:19:54;18.20;12.00
50969;DHT22;36982;51.474;7.228;2023-09-19T10:22:23;18.20;5.10
50969;DHT22;36982;51.474;7.228;2023-09-19T10:24:50;18.20;17.90
50969;DHT22;36982;51.474;7.228;2023-09-19T10:27:19;18.30;22.30
50969;DHT22;36982;51.474;7.228;2023-09-19T10:29:50;18.50;31.70
50969;DHT22;36982;51.474;7.228;2023-09-19T10:32:17;18.50;1.00
50969;DHT22;36982;51.474;7.228;2023-09-19T10:34:48;18.40;1.00
50969;DHT22;36982;51.474;7.228;2023-09-19T10:37:16;18.20;1.00
50969;DHT22;36982;51.474;7.228;2023-09-19T10:39:46;18.10;1.00
50969;DHT22;36982;51.474;7.228;2023-09-19T10:42:14;17.90;1.00
50969;DHT22;36982;51.474;7.228;2023-09-19T10:44:42;18.00;1.00
50969;DHT22;36982;51.474;7.228;2023-09-19T10:47:10;17.90;1.00
50969;DHT22;36982;51.474;7.228;2023-09-19T10:49:46;17.90;1.00
50969;DHT22;36982;51.474;7.228;2023-09-19T10:52:17;18.00;99.90
50969;DHT22;36982;51.474;7.228;2023-09-19T10:54:54;18.20;99.90
50969;DHT22;36982;51.474;7.228;2023-09-19T10:57:23;18.30;99.90
50969;DHT22;36982;51.474;7.228;2023-09-19T11:00:09;18.40;99.90
50969;DHT22;36982;51.474;7.228;2023-09-19T11:05:40;18.30;91.70
50969;DHT22;36982;51.474;7.228;2023-09-19T11:08:10;18.30;1.00
50969;DHT22;36982;51.474;7.228;2023-09-19T11:10:50;18.30;99.90
50969;DHT22;36982;51.474;7.228;2023-09-19T11:13:37;18.30;99.90
50969;DHT22;36982;51.474;7.228;2023-09-19T11:16:04;18.20;99.90
50969;DHT22;36982;51.474;7.228;2023-09-19T11:26:47;18.40;99.90
50969;DHT22;36982;51.474;7.228;2023-09-19T11:29:30;18.40;99.90
50969;DHT22;36982;51.474;7.228;2023-09-19T11:31:57;18.60;99.90
50969;DHT22;36982;51.474;7.228;2023-09-19T11:34:37;18.70;99.90
50969;DHT22;36982;51.474;7.228;2023-09-19T11:40:05;18.80;99.90
50969;DHT22;36982;51.474;7.228;2023-09-19T11:42:48;18.90;99.90
50969;DHT22;36982;51.474;7.228;2023-09-19T11:48:23;19.20;99.90
50969;DHT22;36982;51.474;7.228;2023-09-19T11:50:53;19.20;1.00
50969;DHT22;36982;51.474;7.228;2023-09-19T11:53:19;19.30;1.00
50969;DHT22;36982;51.474;7.228;2023-09-19T11:55:45;19.50;1.00
50969;DHT22;36982;51.474;7.228;2023-09-19T11:58:13;19.50;1.00
50969;DHT22;36982;51.474;7.228;2023-09-19T12:00:44;19.60;99.90
50969;DHT22;36982;51.474;7.228;2023-09-19T12:03:11;19.60;99.90
50969;DHT22;36982;51.474;7.228;2023-09-19T12:05:37;19.50;41.00
50969;DHT22;36982;51.474;7.228;2023-09-19T12:08:04;19.50;96.40
50969;DHT22;36982;51.474;7.228;2023-09-19T12:10:33;19.50;99.90
50969;DHT22;36982;51.474;7.228;2023-09-19T12:12:58;19.50;99.90
50969;DHT22;36982;51.474;7.228;2023-09-19T12:15:25;19.60;99.90
50969;DHT22;36982;51.474;7.228;2023-09-19T12:18:00;19.70;99.90
50969;DHT22;36982;51.474;7.228;2023-09-19T12:20:43;19.70;99.90
50969;DHT22;36982;51.474;7.228;2023-09-19T12:23:15;19.70;80.50
50969;DHT22;36982;51.474;7.228;2023-09-19T12:25:42;19.70;33.70
50969;DHT22;36982;51.474;7.228;2023-09-19T12:28:12;19.50;64.30
50969;DHT22;36982;51.474;7.228;2023-09-19T12:30:37;19.40;99.90
50969;DHT22;36982;51.474;7.228;2023-09-19T12:33:18;19.30;66.50
50969;DHT22;36982;51.474;7.228;2023-09-19T12:35:46;19.40;23.10
50969;DHT22;36982;51.474;7.228;2023-09-19T12:38:25;19.40;99.90
50969;DHT22;36982;51.474;7.228;2023-09-19T12:40:55;19.30;99.90
50969;DHT22;36982;51.474;7.228;2023-09-19T12:43:22;19.30;1.00
50969;DHT22;36982;51.474;7.228;2023-09-19T12:45:48;19.20;43.00
50969;DHT22;36982;51.474;7.228;2023-09-19T12:48:21;19.30;79.10
50969;DHT22;36982;51.474;7.228;2023-09-19T12:51:10;19.30;99.90
50969;DHT22;36982;51.474;7.228;2023-09-19T12:53:42;19.40;20.00
50969;DHT22;36982;51.474;7.228;2023-09-19T12:56:10;19.40;1.00
50969;DHT22;36982;51.474;7.228;2023-09-19T12:58:56;19.40;99.90
50969;DHT22;36982;51.474;7.228;2023-09-19T13:01:25;19.40;99.90
50969;DHT22;36982;51.474;7.228;2023-09-19T13:06:44;19.40;1.00
50969;DHT22;36982;51.474;7.228;2023-09-19T13:09:12;19.50;28.30
50969;DHT22;36982;51.474;7.228;2023-09-19T13:11:40;19.50;61.10
50969;DHT22;36982;51.474;7.228;2023-09-19T13:14:26;19.50;1.00
50969;DHT22;36982;51.474;7.228;2023-09-19T13:19:43;19.80;99.90
50969;DHT22;36982;51.474;7.228;2023-09-19T13:22:36;19.70;99.90
50969;DHT22;36982;51.474;7.228;2023-09-19T13:25:04;19.70;99.90
50969;DHT22;36982;51.474;7.228;2023-09-19T13:27:32;19.60;99.90
50969;DHT22;36982;51.474;7.228;2023-09-19T13:29:58;19.60;1.00
50969;DHT22;36982;51.474;7.228;2023-09-19T13:32:24;19.70;99.90
50969;DHT22;36982;51.474;7.228;2023-09-19T13:34:50;19.70;99.90
50969;DHT22;36982;51.474;7.228;2023-09-19T13:37:16;19.60;99.90
50969;DHT22;36982;51.474;7.228;2023-09-19T13:39:43;19.70;99.90
50969;DHT22;36982;51.474;7.228;2023-09-19T13:42:13;19.70;99.90
50969;DHT22;36982;51.474;7.228;2023-09-19T13:44:39;19.70;99.90
50969;DHT22;36982;51.474;7.228;2023-09-19T13:47:06;19.60;99.90
50969;DHT22;36982;51.474;7.228;2023-09-19T13:49:35;19.60;99.90
50969;DHT22;36982;51.474;7.228;2023-09-19T13:52:02;19.70;99.90
50969;DHT22;36982;51.474;7.228;2023-09-19T13:54:30;19.70;99.90
50969;DHT22;36982;51.474;7.228;2023-09-19T13:56:56;19.80;99.90
50969;DHT22;36982;51.474;7.228;2023-09-19T13:59:22;19.80;99.90
50969;DHT22;36982;51.474;7.228;2023-09-19T14:01:49;19.90;99.90
50969;DHT22;36982;51.474;7.228;2023-09-19T14:04:16;19.90;99.90
50969;DHT22;36982;51.474;7.228;2023-09-19T14:06:42;19.80;99.90
50969;DHT22;36982;51.474;7.228;2023-09-19T14:09:08;19.90;99.90
50969;DHT22;36982;51.474;7.228;2023-09-19T14:11:36;19.70;99.90
50969;DHT22;36982;51.474;7.228;2023-09-19T14:14:01;19.80;99.90
50969;DHT22;36982;51.474;7.228;2023-09-19T14:16:27;19.90;99.90
50969;DHT22;36982;51.474;7.228;2023-09-19T14:18:56;20.00;99.90
50969;DHT22;36982;51.474;7.228;2023-09-19T14:21:22;19.90;99.90
50969;DHT22;36982;51.474;7.228;2023-09-19T14:23:48;19.90;99.90
50969;DHT22;36982;51.474;7.228;2023-09-19T14:26:15;19.90;99.90
50969;DHT22;36982;51.474;7.228;2023-09-19T14:28:42;20.00;99.90
50969;DHT22;36982;51.474;7.228;2023-09-19T14:31:09;20.00;99.90
50969;DHT22;36982;51.474;7.228;2023-09-19T14:33:35;20.00;99.90
50969;DHT22;36982;51.474;7.228;2023-09-19T14:36:05;20.10;99.90
50969;DHT22;36982;51.474;7.228;2023-09-19T14:38:36;20.20;1.00
50969;DHT22;36982;51.474;7.228;2023-09-19T14:41:04;20.10;99.90
50969;DHT22;36982;51.474;7.228;2023-09-19T14:43:30;19.90;1.00
50969;DHT22;36982;51.474;7.228;2023-09-19T14:46:02;19.70;99.90
50969;DHT22;36982;51.474;7.228;2023-09-19T14:48:28;19.70;1.00
50969;DHT22;36982;51.474;7.228;2023-09-19T14:50:53;19.60;99.90
50969;DHT22;36982;51.474;7.228;2023-09-19T14:53:20;19.60;99.90
50969;DHT22;36982;51.474;7.228;2023-09-19T14:55:46;19.60;1.00
50969;DHT22;36982;51.474;7.228;2023-09-19T14:58:17;19.60;1.00
50969;DHT22;36982;51.474;7.228;2023-09-19T15:00:43;19.50;1.00
50969;DHT22;36982;51.474;7.228;2023-09-19T15:03:11;19.40;1.00
50969;DHT22;36982;51.474;7.228;2023-09-19T15:05:36;19.40;28.30
50969;DHT22;36982;51.474;7.228;2023-09-19T15:08:02;19.40;4.90
50969;DHT22;36982;51.474;7.228;2023-09-19T15:10:28;19.40;44.60
50969;DHT22;36982;51.474;7.228;2023-09-19T15:12:54;19.50;56.90
50969;DHT22;36982;51.474;7.228;2023-09-19T15:15:19;19.50;99.90
50969;DHT22;36982;51.474;7.228;2023-09-19T15:17:45;19.60;99.90
50969;DHT22;36982;51.474;7.228;2023-09-19T15:20:12;19.50;99.90
50969;DHT22;36982;51.474;7.228;2023-09-19T15:22:39;19.50;99.90
50969;DHT22;36982;51.474;7.228;2023-09-19T15:25:05;19.40;99.90
50969;DHT22;36982;51.474;7.228;2023-09-19T15:27:31;19.40;99.90
50969;DHT22;36982;51.474;7.228;2023-09-19T15:29:59;19.40;99.90
50969;DHT22;36982;51.474;7.228;2023-09-19T15:32:25;19.30;99.90
50969;DHT22;36982;51.474;7.228;2023-09-19T15:34:51;19.30;99.90
50969;DHT22;36982;51.474;7.228;2023-09-19T15:37:17;19.20;99.90
50969;DHT22;36982;51.474;7.228;2023-09-19T15:39:42;19.20;99.90
50969;DHT22;36982;51.474;7.228;2023-09-19T15:42:10;19.30;99.90
50969;DHT22;36982;51.474;7.228;2023-09-19T15:44:36;19.20;1.00
50969;DHT22;36982;51.474;7.228;2023-09-19T15:47:03;19.20;1.00
50969;DHT22;36982;51.474;7.228;2023-09-19T15:49:28;19.20;1.00
50969;DHT22;36982;51.474;7.228;2023-09-19T15:51:54;19.20;1.00
50969;DHT22;36982;51.474;7.228;2023-09-19T15:54:20;19.30;1.00
50969;DHT22;36982;51.474;7.228;2023-09-19T15:56:46;19.30;1.00
50969;DHT22;36982;51.474;7.228;2023-09-19T15:59:12;19.30;99.90
50969;DHT22;36982;51.474;7.228;2023-09-19T16:01:39;19.30;99.90
50969;DHT22;36982;51.474;7.228;2023-09-19T16:04:11;19.30;99.90
50969;DHT22;36982;51.474;7.228;2023-09-19T16:06:38;19.30;99.90
50969;DHT22;36982;51.474;7.228;2023-09-19T16:09:04;19.30;99.90
50969;DHT22;36982;51.474;7.228;2023-09-19T16:11:32;19.30;1.00
50969;DHT22;36982;51.474;7.228;2023-09-19T16:13:58;19.20;99.90
50969;DHT22;36982;51.474;7.228;2023-09-19T16:16:25;19.20;1.00
50969;DHT22;36982;51.474;7.228;2023-09-19T16:18:58;19.20;99.90
50969;DHT22;36982;51.474;7.228;2023-09-19T16:21:26;19.20;99.90